sensor_id;sensor_type;location;lat;lon;timestamp;pressure;altitude;pressure_sealevel;temperature;humidity
79729;BME280;69218;52.132;5.418;2023-04-25T00:00:48;101195.31;;;6.23;83.31
79729;BME280;69218;52.132;5.418;2023-04-25T00:03:15;101205.72;;;6.23;83.44
79729;BME280;69218;52.132;5.418;2023-04-25T00:05:42;101207.63;;;6.20;83.30
79729;BME280;69218;52.132;5.418;2023-04-25T00:08:09;101213.63;;;6.22;83.30
79729;BME280;69218;52.132;5.418;2023-04-25T00:10:36;101211.13;;;6.20;83.03
79729;BME280;69218;52.132;5.418;2023-04-25T00:13:02;101218.06;;;6.20;83.20
79729;BME280;69218;52.132;5.418;2023-04-25T00:15:29;101219.75;;;6.21;83.56
79729;BME280;69218;52.132;5.418;2023-04-25T00:17:57;101218.75;;;6.23;83.60
79729;BME280;69218;52.132;5.418;2023-04-25T00:20:23;101219.56;;;6.24;82.91
79729;BME280;69218;52.132;5.418;2023-04-25T00:22:51;101220.41;;;6.24;82.84
79729;BME280;69218;52.132;5.418;2023-04-25T00:25:19;101225.72;;;6.23;83.14
79729;BME280;69218;52.132;5.418;2023-04-25T00:27:46;101231.75;;;6.23;83.39
79729;BME280;69218;52.132;5.418;2023-04-25T00:30:13;101226.38;;;6.26;83.27
79729;BME280;69218;52.132;5.418;2023-04-25T00:32:39;101226.47;;;6.25;83.51
79729;BME280;69218;52.132;5.418;2023-04-25T00:35:06;101229.81;;;6.27;83.25
79729;BME280;69218;52.132;5.418;2023-04-25T00:37:33;101228.06;;;6.27;83.03
79729;BME280;69218;52.132;5.418;2023-04-25T00:39:59;101223.94;;;6.23;83.22
79729;BME280;69218;52.132;5.418;2023-04-25T00:42:26;101226.72;;;6.20;83.56
79729;BME280;69218;52.132;5.418;2023-04-25T00:44:52;101227.72;;;6.18;83.10
79729;BME280;69218;52.132;5.418;2023-04-25T00:47:19;101237.13;;;6.20;82.88
79729;BME280;69218;52.132;5.418;2023-04-25T00:49:46;101225.84;;;6.20;82.88
79729;BME280;69218;52.132;5.418;2023-04-25T00:52:12;101231.00;;;6.21;83.24
79729;BME280;69218;52.132;5.418;2023-04-25T00:54:39;101234.59;;;6.19;82.60
79729;BME280;69218;52.132;5.418;2023-04-25T00:57:06;101233.59;;;6.21;82.32
79729;BME280;69218;52.132;5.418;2023-04-25T00:59:33;101229.34;;;6.20;82.46
79729;BME280;69218;52.132;5.418;2023-04-25T01:01:59;101228.56;;;6.18;82.25
79729;BME280;69218;52.132;5.418;2023-04-25T01:04:27;101225.38;;;6.13;82.37
79729;BME280;69218;52.132;5.418;2023-04-25T01:06:54;101230.75;;;6.10;82.57
79729;BME280;69218;52.132;5.418;2023-04-25T01:09:22;101222.34;;;6.05;82.98
79729;BME280;69218;52.132;5.418;2023-04-25T01:11:49;101228.56;;;6.02;82.96
79729;BME280;69218;52.132;5.418;2023-04-25T01:14:16;101227.88;;;5.99;83.03
79729;BME280;69218;52.132;5.418;2023-04-25T01:16:43;101235.13;;;5.94;82.80
79729;BME280;69218;52.132;5.418;2023-04-25T01:19:11;101233.50;;;5.91;83.20
79729;BME280;69218;52.132;5.418;2023-04-25T01:21:41;101239.59;;;5.90;82.29
79729;BME280;69218;52.132;5.418;2023-04-25T01:24:08;101244.22;;;5.85;82.73
79729;BME280;69218;52.132;5.418;2023-04-25T01:26:35;101242.94;;;5.76;82.76
79729;BME280;69218;52.132;5.418;2023-04-25T01:29:04;101249.16;;;5.74;82.52
79729;BME280;69218;52.132;5.418;2023-04-25T01:31:32;101252.75;;;5.71;82.57
79729;BME280;69218;52.132;5.418;2023-04-25T01:33:58;101253.81;;;5.67;82.96
79729;BME280;69218;52.132;5.418;2023-04-25T01:36:25;101258.34;;;5.64;83.08
79729;BME280;69218;52.132;5.418;2023-04-25T01:38:53;101254.31;;;5.58;83.47
79729;BME280;69218;52.132;5.418;2023-04-25T01:41:19;101261.69;;;5.50;83.61
79729;BME280;69218;52.132;5.418;2023-04-25T01:43:48;101254.03;;;5.47;83.45
79729;BME280;69218;52.132;5.418;2023-04-25T01:46:16;101255.97;;;5.43;83.91
79729;BME280;69218;52.132;5.418;2023-04-25T01:48:43;101254.50;;;5.38;83.47
79729;BME280;69218;52.132;5.418;2023-04-25T01:51:09;101259.09;;;5.33;83.71
79729;BME280;69218;52.132;5.418;2023-04-25T01:53:38;101252.31;;;5.30;83.83
79729;BME280;69218;52.132;5.418;2023-04-25T01:56:05;101267.06;;;5.30;83.93
79729;BME280;69218;52.132;5.418;2023-04-25T01:58:31;101267.97;;;5.29;83.75
79729;BME280;69218;52.132;5.418;2023-04-25T02:00:58;101260.31;;;5.26;83.90
79729;BME280;69218;52.132;5.418;2023-04-25T02:03:24;101263.84;;;5.24;83.84
79729;BME280;69218;52.132;5.418;2023-04-25T02:05:51;101270.88;;;5.22;84.06
79729;BME280;69218;52.132;5.418;2023-04-25T02:08:17;101271.94;;;5.18;83.78
79729;BME280;69218;52.132;5.418;2023-04-25T02:10:44;101272.03;;;5.17;83.93
79729;BME280;69218;52.132;5.418;2023-04-25T02:13:11;101276.69;;;5.10;83.40
79729;BME280;69218;52.132;5.418;2023-04-25T02:15:37;101272.34;;;5.11;83.07
79729;BME280;69218;52.132;5.418;2023-04-25T02:18:04;101270.94;;;5.04;83.21
79729;BME280;69218;52.132;5.418;2023-04-25T02:20:32;101283.03;;;5.05;82.76
79729;BME280;69218;52.132;5.418;2023-04-25T02:22:59;101282.41;;;5.00;82.98
79729;BME280;69218;52.132;5.418;2023-04-25T02:25:25;101279.81;;;5.00;82.72
79729;BME280;69218;52.132;5.418;2023-04-25T02:27:52;101279.34;;;4.91;82.42
79729;BME280;69218;52.132;5.418;2023-04-25T02:30:19;101282.19;;;4.87;82.65
79729;BME280;69218;52.132;5.418;2023-04-25T02:32:45;101284.25;;;4.80;82.33
79729;BME280;69218;52.132;5.418;2023-04-25T02:35:12;101285.00;;;4.82;82.65
79729;BME280;69218;52.132;5.418;2023-04-25T02:37:39;101281.78;;;4.77;82.28
79729;BME280;69218;52.132;5.418;2023-04-25T02:40:06;101283.59;;;4.75;82.25
79729;BME280;69218;52.132;5.418;2023-04-25T02:42:33;101288.88;;;4.74;82.00
79729;BME280;69218;52.132;5.418;2023-04-25T02:45:00;101289.81;;;4.73;82.72
79729;BME280;69218;52.132;5.418;2023-04-25T02:47:26;101290.78;;;4.70;82.57
79729;BME280;69218;52.132;5.418;2023-04-25T02:49:53;101283.59;;;4.75;82.52
79729;BME280;69218;52.132;5.418;2023-04-25T02:52:19;101287.88;;;4.76;82.18
79729;BME280;69218;52.132;5.418;2023-04-25T02:54:47;101278.50;;;4.74;82.81
79729;BME280;69218;52.132;5.418;2023-04-25T02:57:13;101289.81;;;4.73;83.02
79729;BME280;69218;52.132;5.418;2023-04-25T02:59:41;101288.94;;;4.72;83.73
79729;BME280;69218;52.132;5.418;2023-04-25T03:02:07;101289.81;;;4.73;83.49
79729;BME280;69218;52.132;5.418;2023-04-25T03:04:34;101288.88;;;4.74;83.33
79729;BME280;69218;52.132;5.418;2023-04-25T03:07:00;101295.03;;;4.71;83.48
79729;BME280;69218;52.132;5.418;2023-04-25T03:09:27;101290.78;;;4.70;83.24
79729;BME280;69218;52.132;5.418;2023-04-25T03:11:53;101292.59;;;4.68;83.52
79729;BME280;69218;52.132;5.418;2023-04-25T03:14:20;101288.41;;;4.65;83.51
79729;BME280;69218;52.132;5.418;2023-04-25T03:16:46;101294.66;;;4.61;83.49
79729;BME280;69218;52.132;5.418;2023-04-25T03:19:13;101295.66;;;4.59;83.84
79729;BME280;69218;52.132;5.418;2023-04-25T03:21:44;101298.38;;;4.56;84.13
79729;BME280;69218;52.132;5.418;2023-04-25T03:24:11;101300.84;;;4.59;84.57
79729;BME280;69218;52.132;5.418;2023-04-25T03:26:38;101301.69;;;4.59;84.61
79729;BME280;69218;52.132;5.418;2023-04-25T03:29:04;101299.94;;;4.60;84.27
79729;BME280;69218;52.132;5.418;2023-04-25T03:31:31;101300.75;;;4.60;84.24
79729;BME280;69218;52.132;5.418;2023-04-25T03:33:57;101303.28;;;4.62;84.67
79729;BME280;69218;52.132;5.418;2023-04-25T03:36:24;101300.69;;;4.62;84.78
79729;BME280;69218;52.132;5.418;2023-04-25T03:38:50;101307.47;;;4.64;84.78
79729;BME280;69218;52.132;5.418;2023-04-25T03:41:17;101308.28;;;4.66;84.88
79729;BME280;69218;52.132;5.418;2023-04-25T03:43:43;101312.47;;;4.69;84.52
79729;BME280;69218;52.132;5.418;2023-04-25T03:46:10;101314.91;;;4.72;84.53
79729;BME280;69218;52.132;5.418;2023-04-25T03:48:36;101323.47;;;4.74;84.85
79729;BME280;69218;52.132;5.418;2023-04-25T03:51:03;101326.06;;;4.74;84.90
79729;BME280;69218;52.132;5.418;2023-04-25T03:53:29;101332.09;;;4.75;84.59
79729;BME280;69218;52.132;5.418;2023-04-25T03:55:56;101320.66;;;4.79;84.51
79729;BME280;69218;52.132;5.418;2023-04-25T03:58:22;101320.66;;;4.79;84.58
79729;BME280;69218;52.132;5.418;2023-04-25T04:00:50;101317.16;;;4.80;84.57
79729;BME280;69218;52.132;5.418;2023-04-25T04:03:17;101318.00;;;4.80;84.52
79729;BME280;69218;52.132;5.418;2023-04-25T04:05:43;101326.63;;;4.81;84.50
79729;BME280;69218;52.132;5.418;2023-04-25T04:08:11;101326.72;;;4.79;84.63
79729;BME280;69218;52.132;5.418;2023-04-25T04:10:38;101330.91;;;4.82;84.68
79729;BME280;69218;52.132;5.418;2023-04-25T04:13:04;101329.22;;;4.81;84.82
79729;BME280;69218;52.132;5.418;2023-04-25T04:15:31;101333.50;;;4.82;84.66
79729;BME280;69218;52.132;5.418;2023-04-25T04:17:59;101337.78;;;4.83;84.30
79729;BME280;69218;52.132;5.418;2023-04-25T04:20:29;101342.13;;;4.82;84.15
79729;BME280;69218;52.132;5.418;2023-04-25T04:22:56;101341.13;;;4.85;84.45
79729;BME280;69218;52.132;5.418;2023-04-25T04:25:24;101334.13;;;4.87;84.43
79729;BME280;69218;52.132;5.418;2023-04-25T04:27:51;101333.22;;;4.88;84.22
79729;BME280;69218;52.132;5.418;2023-04-25T04:30:24;101340.00;;;4.90;84.53
79729;BME280;69218;52.132;5.418;2023-04-25T04:32:51;101341.59;;;4.93;83.93
79729;BME280;69218;52.132;5.418;2023-04-25T04:35:18;101341.59;;;4.93;84.16
79729;BME280;69218;52.132;5.418;2023-04-25T04:37:44;101344.19;;;4.93;83.70
79729;BME280;69218;52.132;5.418;2023-04-25T04:40:12;101348.44;;;4.95;83.55
79729;BME280;69218;52.132;5.418;2023-04-25T04:42:44;101357.81;;;4.98;83.74
79729;BME280;69218;52.132;5.418;2023-04-25T04:45:17;101357.69;;;5.01;84.17
79729;BME280;69218;52.132;5.418;2023-04-25T04:47:44;101357.53;;;5.04;83.88
79729;BME280;69218;52.132;5.418;2023-04-25T04:50:12;101366.06;;;5.06;83.38
79729;BME280;69218;52.132;5.418;2023-04-25T04:52:38;101362.50;;;5.09;83.01
79729;BME280;69218;52.132;5.418;2023-04-25T04:55:05;101366.63;;;5.13;82.66
79729;BME280;69218;52.132;5.418;2023-04-25T04:57:32;101368.31;;;5.14;82.44
79729;BME280;69218;52.132;5.418;2023-04-25T04:59:59;101371.75;;;5.14;81.67
79729;BME280;69218;52.132;5.418;2023-04-25T05:02:25;101373.44;;;5.15;81.46
79729;BME280;69218;52.132;5.418;2023-04-25T05:04:55;101382.75;;;5.19;81.32
79729;BME280;69218;52.132;5.418;2023-04-25T05:07:23;101385.38;;;5.19;81.48
79729;BME280;69218;52.132;5.418;2023-04-25T05:09:49;101389.59;;;5.22;81.40
79729;BME280;69218;52.132;5.418;2023-04-25T05:12:16;101388.59;;;5.24;81.98
79729;BME280;69218;52.132;5.418;2023-04-25T05:14:42;101393.72;;;5.26;82.59
79729;BME280;69218;52.132;5.418;2023-04-25T05:17:09;101399.75;;;5.27;82.29
79729;BME280;69218;52.132;5.418;2023-04-25T05:19:36;101402.25;;;5.28;82.29
79729;BME280;69218;52.132;5.418;2023-04-25T05:22:02;101399.63;;;5.30;81.42
79729;BME280;69218;52.132;5.418;2023-04-25T05:24:29;101410.78;;;5.32;81.69
79729;BME280;69218;52.132;5.418;2023-04-25T05:26:57;101409.84;;;5.33;81.43
79729;BME280;69218;52.132;5.418;2023-04-25T05:29:24;101410.56;;;5.36;81.52
79729;BME280;69218;52.132;5.418;2023-04-25T05:31:50;101414.66;;;5.40;81.67
79729;BME280;69218;52.132;5.418;2023-04-25T05:34:17;101416.31;;;5.43;81.65
79729;BME280;69218;52.132;5.418;2023-04-25T05:36:43;101418.72;;;5.46;81.53
79729;BME280;69218;52.132;5.418;2023-04-25T05:39:10;101421.16;;;5.49;81.63
79729;BME280;69218;52.132;5.418;2023-04-25T05:41:36;101420.28;;;5.50;81.75
79729;BME280;69218;52.132;5.418;2023-04-25T05:44:03;101423.47;;;5.55;81.39
79729;BME280;69218;52.132;5.418;2023-04-25T05:46:29;101418.19;;;5.57;80.81
79729;BME280;69218;52.132;5.418;2023-04-25T05:48:56;101417.06;;;5.62;80.27
79729;BME280;69218;52.132;5.418;2023-04-25T05:51:22;101425.41;;;5.69;80.16
79729;BME280;69218;52.132;5.418;2023-04-25T05:53:48;101432.97;;;5.73;80.50
79729;BME280;69218;52.132;5.418;2023-04-25T05:56:15;101436.97;;;5.81;80.61
79729;BME280;69218;52.132;5.418;2023-04-25T05:58:44;101437.72;;;5.83;80.04
79729;BME280;69218;52.132;5.418;2023-04-25T06:01:11;101445.94;;;5.92;79.82
79729;BME280;69218;52.132;5.418;2023-04-25T06:03:38;101445.88;;;5.94;79.51
79729;BME280;69218;52.132;5.418;2023-04-25T06:06:05;101447.16;;;6.02;80.04
79729;BME280;69218;52.132;5.418;2023-04-25T06:08:32;101444.16;;;6.10;79.14
79729;BME280;69218;52.132;5.418;2023-04-25T06:10:58;101448.22;;;6.16;78.62
79729;BME280;69218;52.132;5.418;2023-04-25T06:13:25;101448.28;;;6.14;78.22
79729;BME280;69218;52.132;5.418;2023-04-25T06:15:51;101459.28;;;6.19;78.55
79729;BME280;69218;52.132;5.418;2023-04-25T06:18:18;101453.03;;;6.23;78.15
79729;BME280;69218;52.132;5.418;2023-04-25T06:20:44;101459.50;;;6.32;77.90
79729;BME280;69218;52.132;5.418;2023-04-25T06:23:10;101453.91;;;6.40;77.82
79729;BME280;69218;52.132;5.418;2023-04-25T06:25:37;101457.19;;;6.43;76.86
79729;BME280;69218;52.132;5.418;2023-04-25T06:28:03;101455.16;;;6.48;77.58
79729;BME280;69218;52.132;5.418;2023-04-25T06:30:30;101459.41;;;6.51;76.72
79729;BME280;69218;52.132;5.418;2023-04-25T06:32:56;101460.75;;;6.58;76.45
79729;BME280;69218;52.132;5.418;2023-04-25T06:35:23;101464.38;;;6.71;76.66
79729;BME280;69218;52.132;5.418;2023-04-25T06:37:49;101463.13;;;6.78;76.39
79729;BME280;69218;52.132;5.418;2023-04-25T06:40:16;101468.78;;;6.86;75.88
79729;BME280;69218;52.132;5.418;2023-04-25T06:42:43;101464.91;;;6.94;75.65
79729;BME280;69218;52.132;5.418;2023-04-25T06:45:10;101469.09;;;6.96;74.98
79729;BME280;69218;52.132;5.418;2023-04-25T06:47:37;101477.53;;;7.01;74.71
79729;BME280;69218;52.132;5.418;2023-04-25T06:50:04;101472.13;;;7.04;73.99
79729;BME280;69218;52.132;5.418;2023-04-25T06:52:30;101476.06;;;7.11;74.54
79729;BME280;69218;52.132;5.418;2023-04-25T06:54:57;101475.19;;;7.12;73.30
79729;BME280;69218;52.132;5.418;2023-04-25T06:57:24;101475.69;;;7.19;73.87
79729;BME280;69218;52.132;5.418;2023-04-25T06:59:50;101473.66;;;7.24;73.51
79729;BME280;69218;52.132;5.418;2023-04-25T07:02:17;101484.47;;;7.32;72.84
79729;BME280;69218;52.132;5.418;2023-04-25T07:04:43;101486.59;;;7.41;73.86
79729;BME280;69218;52.132;5.418;2023-04-25T07:07:12;101494.84;;;7.50;73.33
79729;BME280;69218;52.132;5.418;2023-04-25T07:09:38;101492.38;;;7.47;71.66
79729;BME280;69218;52.132;5.418;2023-04-25T07:12:05;101488.78;;;7.49;71.56
79729;BME280;69218;52.132;5.418;2023-04-25T07:14:31;101493.91;;;7.51;71.50
79729;BME280;69218;52.132;5.418;2023-04-25T07:16:58;101495.06;;;7.45;70.88
79729;BME280;69218;52.132;5.418;2023-04-25T07:19:25;101505.41;;;7.47;71.45
79729;BME280;69218;52.132;5.418;2023-04-25T07:21:52;101508.81;;;7.49;69.67
79729;BME280;69218;52.132;5.418;2023-04-25T07:24:19;101508.63;;;7.52;70.14
79729;BME280;69218;52.132;5.418;2023-04-25T07:26:45;101516.50;;;7.66;69.95
79729;BME280;69218;52.132;5.418;2023-04-25T07:29:12;101513.06;;;7.95;69.10
79729;BME280;69218;52.132;5.418;2023-04-25T07:31:39;101517.81;;;8.19;69.77
79729;BME280;69218;52.132;5.418;2023-04-25T07:34:05;101523.59;;;8.24;67.87
79729;BME280;69218;52.132;5.418;2023-04-25T07:36:32;101514.91;;;8.23;68.66
79729;BME280;69218;52.132;5.418;2023-04-25T07:38:59;101520.22;;;8.22;67.97
79729;BME280;69218;52.132;5.418;2023-04-25T07:41:26;101514.56;;;8.30;68.26
79729;BME280;69218;52.132;5.418;2023-04-25T07:43:53;101529.81;;;8.37;67.76
79729;BME280;69218;52.132;5.418;2023-04-25T07:46:19;101526.09;;;8.41;67.09
79729;BME280;69218;52.132;5.418;2023-04-25T07:48:46;101531.97;;;8.45;66.48
79729;BME280;69218;52.132;5.418;2023-04-25T07:51:12;101533.47;;;8.49;66.19
79729;BME280;69218;52.132;5.418;2023-04-25T07:53:39;101536.56;;;8.56;65.72
79729;BME280;69218;52.132;5.418;2023-04-25T07:56:05;101532.06;;;8.58;64.43
79729;BME280;69218;52.132;5.418;2023-04-25T07:58:32;101540.19;;;8.53;64.74
79729;BME280;69218;52.132;5.418;2023-04-25T08:00:58;101542.81;;;8.53;64.07
79729;BME280;69218;52.132;5.418;2023-04-25T08:03:25;101550.09;;;8.62;63.35
79729;BME280;69218;52.132;5.418;2023-04-25T08:05:52;101546.44;;;8.79;64.13
79729;BME280;69218;52.132;5.418;2023-04-25T08:08:19;101547.50;;;8.91;63.32
79729;BME280;69218;52.132;5.418;2023-04-25T08:10:46;101553.09;;;8.85;60.93
79729;BME280;69218;52.132;5.418;2023-04-25T08:13:14;101555.59;;;8.86;63.43
79729;BME280;69218;52.132;5.418;2023-04-25T08:15:40;101553.19;;;8.97;61.78
79729;BME280;69218;52.132;5.418;2023-04-25T08:18:07;101554.38;;;9.06;61.68
79729;BME280;69218;52.132;5.418;2023-04-25T08:20:34;101571.59;;;9.10;62.13
79729;BME280;69218;52.132;5.418;2023-04-25T08:23:01;101579.78;;;9.18;61.25
79729;BME280;69218;52.132;5.418;2023-04-25T08:25:27;101583.63;;;8.84;60.33
79729;BME280;69218;52.132;5.418;2023-04-25T08:27:54;101586.84;;;8.59;62.51
79729;BME280;69218;52.132;5.418;2023-04-25T08:30:20;101592.81;;;8.47;61.40
79729;BME280;69218;52.132;5.418;2023-04-25T08:32:47;101601.59;;;8.46;63.19
79729;BME280;69218;52.132;5.418;2023-04-25T08:35:14;101596.38;;;8.46;62.03
79729;BME280;69218;52.132;5.418;2023-04-25T08:37:40;101596.81;;;8.52;62.92
79729;BME280;69218;52.132;5.418;2023-04-25T08:40:11;101601.03;;;8.55;61.16
79729;BME280;69218;52.132;5.418;2023-04-25T08:42:42;101599.00;;;8.60;61.60
79729;BME280;69218;52.132;5.418;2023-04-25T08:45:09;101599.19;;;8.71;60.88
79729;BME280;69218;52.132;5.418;2023-04-25T08:47:38;101608.44;;;8.77;61.66
79729;BME280;69218;52.132;5.418;2023-04-25T08:50:06;101601.91;;;8.70;62.28
79729;BME280;69218;52.132;5.418;2023-04-25T08:52:37;101613.69;;;8.77;61.67
79729;BME280;69218;52.132;5.418;2023-04-25T08:55:06;101620.59;;;8.92;59.98
79729;BME280;69218;52.132;5.418;2023-04-25T08:57:35;101616.41;;;9.04;60.68
79729;BME280;69218;52.132;5.418;2023-04-25T09:00:02;101614.53;;;9.20;59.45
79729;BME280;69218;52.132;5.418;2023-04-25T09:02:29;101624.88;;;9.50;59.10
79729;BME280;69218;52.132;5.418;2023-04-25T09:04:57;101626.13;;;9.72;60.08
79729;BME280;69218;52.132;5.418;2023-04-25T09:07:25;101628.72;;;9.86;57.18
79729;BME280;69218;52.132;5.418;2023-04-25T09:09:52;101629.94;;;9.95;57.32
79729;BME280;69218;52.132;5.418;2023-04-25T09:12:19;101625.97;;;10.02;57.87
79729;BME280;69218;52.132;5.418;2023-04-25T09:15:02;101636.06;;;10.21;55.91
79729;BME280;69218;52.132;5.418;2023-04-25T09:17:29;101627.47;;;10.45;56.51
79729;BME280;69218;52.132;5.418;2023-04-25T09:20:05;101635.47;;;10.69;54.84
79729;BME280;69218;52.132;5.418;2023-04-25T09:22:32;101636.09;;;10.60;53.28
79729;BME280;69218;52.132;5.418;2023-04-25T09:25:02;101649.59;;;10.41;55.49
79729;BME280;69218;52.132;5.418;2023-04-25T09:27:29;101646.53;;;10.35;56.19
79729;BME280;69218;52.132;5.418;2023-04-25T09:29:58;101658.28;;;10.29;55.45
79729;BME280;69218;52.132;5.418;2023-04-25T09:32:28;101655.25;;;10.21;56.64
79729;BME280;69218;52.132;5.418;2023-04-25T09:34:56;101653.47;;;10.22;55.82
79729;BME280;69218;52.132;5.418;2023-04-25T09:37:27;101655.22;;;10.23;56.41
79729;BME280;69218;52.132;5.418;2023-04-25T09:39:56;101661.72;;;10.30;56.53
79729;BME280;69218;52.132;5.418;2023-04-25T09:42:24;101668.56;;;10.18;55.89
79729;BME280;69218;52.132;5.418;2023-04-25T09:44:53;101672.56;;;9.97;56.31
79729;BME280;69218;52.132;5.418;2023-04-25T09:47:20;101679.06;;;9.77;59.20
79729;BME280;69218;52.132;5.418;2023-04-25T09:49:51;101691.69;;;9.70;60.00
79729;BME280;69218;52.132;5.418;2023-04-25T09:52:20;101700.59;;;9.53;59.26
79729;BME280;69218;52.132;5.418;2023-04-25T09:54:50;101712.38;;;9.46;59.70
79729;BME280;69218;52.132;5.418;2023-04-25T09:57:23;101705.94;;;9.52;59.88
79729;BME280;69218;52.132;5.418;2023-04-25T09:59:54;101707.97;;;9.61;59.57
79729;BME280;69218;52.132;5.418;2023-04-25T10:02:25;101710.31;;;9.80;59.12
79729;BME280;69218;52.132;5.418;2023-04-25T10:04:54;101712.09;;;10.06;58.84
79729;BME280;69218;52.132;5.418;2023-04-25T10:07:23;101713.38;;;10.13;57.95
79729;BME280;69218;52.132;5.418;2023-04-25T10:09:59;101716.09;;;10.26;57.73
79729;BME280;69218;52.132;5.418;2023-04-25T10:12:28;101710.25;;;10.62;57.46
79729;BME280;69218;52.132;5.418;2023-04-25T10:14:55;101715.31;;;10.78;55.87
79729;BME280;69218;52.132;5.418;2023-04-25T10:17:22;101693.06;;;10.71;53.75
79729;BME280;69218;52.132;5.418;2023-04-25T10:19:48;101697.81;;;10.91;53.52
79729;BME280;69218;52.132;5.418;2023-04-25T10:22:32;101702.22;;;10.91;51.87
79729;BME280;69218;52.132;5.418;2023-04-25T10:25:00;101695.09;;;10.93;53.06
79729;BME280;69218;52.132;5.418;2023-04-25T10:27:30;101698.97;;;11.13;53.03
79729;BME280;69218;52.132;5.418;2023-04-25T10:30:05;101692.69;;;11.15;53.41
79729;BME280;69218;52.132;5.418;2023-04-25T10:32:32;101702.38;;;11.15;50.49
79729;BME280;69218;52.132;5.418;2023-04-25T10:35:19;101702.97;;;11.18;51.91
79729;BME280;69218;52.132;5.418;2023-04-25T10:38:05;101703.94;;;11.30;52.04
79729;BME280;69218;52.132;5.418;2023-04-25T10:40:35;101695.94;;;11.57;50.67
79729;BME280;69218;52.132;5.418;2023-04-25T10:45:56;101692.75;;;11.65;51.29
79729;BME280;69218;52.132;5.418;2023-04-25T10:48:29;101696.53;;;11.86;48.94
79729;BME280;69218;52.132;5.418;2023-04-25T10:51:23;101695.16;;;11.80;48.34
79729;BME280;69218;52.132;5.418;2023-04-25T10:56:22;101701.34;;;12.16;50.83
79729;BME280;69218;52.132;5.418;2023-04-25T10:58:49;101705.00;;;12.50;49.44
79729;BME280;69218;52.132;5.418;2023-04-25T11:01:24;101695.16;;;12.76;49.35
79729;BME280;69218;52.132;5.418;2023-04-25T11:03:57;101695.75;;;12.80;47.21
79729;BME280;69218;52.132;5.418;2023-04-25T11:09:12;101703.78;;;12.19;49.61
79729;BME280;69218;52.132;5.418;2023-04-25T11:11:41;101725.47;;;11.97;51.22
79729;BME280;69218;52.132;5.418;2023-04-25T11:14:08;101732.88;;;11.54;54.40
79729;BME280;69218;52.132;5.418;2023-04-25T11:16:34;101741.41;;;11.19;56.77
79729;BME280;69218;52.132;5.418;2023-04-25T11:19:02;101740.53;;;11.06;57.35
79729;BME280;69218;52.132;5.418;2023-04-25T11:21:30;101738.22;;;10.89;58.28
79729;BME280;69218;52.132;5.418;2023-04-25T11:23:59;101748.22;;;10.69;58.63
79729;BME280;69218;52.132;5.418;2023-04-25T11:26:25;101756.03;;;10.44;59.69
79729;BME280;69218;52.132;5.418;2023-04-25T11:28:57;101759.06;;;10.24;59.57
79729;BME280;69218;52.132;5.418;2023-04-25T11:31:25;101755.13;;;10.16;60.17
79729;BME280;69218;52.132;5.418;2023-04-25T11:33:53;101760.75;;;10.10;59.81
79729;BME280;69218;52.132;5.418;2023-04-25T11:36:22;101753.00;;;10.09;59.67
79729;BME280;69218;52.132;5.418;2023-04-25T11:38:50;101750.66;;;10.04;59.66
79729;BME280;69218;52.132;5.418;2023-04-25T11:41:17;101752.78;;;10.12;59.05
79729;BME280;69218;52.132;5.418;2023-04-25T11:43:44;101753.63;;;10.27;58.46
79729;BME280;69218;52.132;5.418;2023-04-25T11:46:10;101764.53;;;10.48;59.61
79729;BME280;69218;52.132;5.418;2023-04-25T11:48:41;101758.00;;;10.67;56.61
79729;BME280;69218;52.132;5.418;2023-04-25T11:51:09;101765.94;;;10.93;54.98
79729;BME280;69218;52.132;5.418;2023-04-25T11:53:35;101756.63;;;11.27;54.33
79729;BME280;69218;52.132;5.418;2023-04-25T11:56:09;101755.38;;;11.71;52.88
79729;BME280;69218;52.132;5.418;2023-04-25T11:58:54;101754.38;;;12.10;53.50
79729;BME280;69218;52.132;5.418;2023-04-25T12:01:29;101749.44;;;12.42;52.12
79729;BME280;69218;52.132;5.418;2023-04-25T12:04:20;101740.38;;;12.81;50.49
79729;BME280;69218;52.132;5.418;2023-04-25T12:06:49;101750.00;;;12.93;48.85
79729;BME280;69218;52.132;5.418;2023-04-25T12:09:28;101747.09;;;12.85;48.39
79729;BME280;69218;52.132;5.418;2023-04-25T12:11:56;101759.16;;;12.77;48.97
79729;BME280;69218;52.132;5.418;2023-04-25T12:14:28;101744.34;;;12.28;48.01
79729;BME280;69218;52.132;5.418;2023-04-25T12:16:57;101754.16;;;12.13;49.11
79729;BME280;69218;52.132;5.418;2023-04-25T12:19:25;101754.06;;;12.38;48.75
79729;BME280;69218;52.132;5.418;2023-04-25T12:21:52;101761.53;;;12.69;50.00
79729;BME280;69218;52.132;5.418;2023-04-25T12:24:26;101768.91;;;12.63;49.47
79729;BME280;69218;52.132;5.418;2023-04-25T12:26:58;101770.91;;;12.36;48.96
79729;BME280;69218;52.132;5.418;2023-04-25T12:29:26;101776.88;;;12.14;49.86
79729;BME280;69218;52.132;5.418;2023-04-25T12:32:00;101770.97;;;12.10;49.32
79729;BME280;69218;52.132;5.418;2023-04-25T12:34:28;101779.25;;;12.17;50.33
79729;BME280;69218;52.132;5.418;2023-04-25T12:36:54;101776.84;;;12.27;50.75
79729;BME280;69218;52.132;5.418;2023-04-25T12:39:23;101776.16;;;12.36;49.72
79729;BME280;69218;52.132;5.418;2023-04-25T12:41:52;101765.47;;;12.26;48.21
79729;BME280;69218;52.132;5.418;2023-04-25T12:44:20;101765.81;;;12.46;49.70
79729;BME280;69218;52.132;5.418;2023-04-25T12:46:47;101779.94;;;12.69;47.73
79729;BME280;69218;52.132;5.418;2023-04-25T12:49:14;101778.63;;;12.74;47.27
79729;BME280;69218;52.132;5.418;2023-04-25T12:51:44;101771.84;;;12.83;47.93
79729;BME280;69218;52.132;5.418;2023-04-25T12:54:11;101775.41;;;13.17;47.62
79729;BME280;69218;52.132;5.418;2023-04-25T12:56:37;101763.78;;;13.55;43.72
79729;BME280;69218;52.132;5.418;2023-04-25T12:59:04;101754.22;;;13.76;44.59
79729;BME280;69218;52.132;5.418;2023-04-25T13:01:30;101763.06;;;13.97;43.93
79729;BME280;69218;52.132;5.418;2023-04-25T13:04:01;101771.22;;;13.83;44.81
79729;BME280;69218;52.132;5.418;2023-04-25T13:06:28;101757.53;;;14.00;43.78
79729;BME280;69218;52.132;5.418;2023-04-25T13:08:56;101768.22;;;14.10;44.15